sensor_id;sensor_type;location;lat;lon;timestamp;pressure;altitude;pressure_sealevel;temperature;humidity
84947;BME280;75241;51.692;5.196;2024-01-30T00:01:22;102680.66;;;6.03;84.29
84947;BME280;75241;51.692;5.196;2024-01-30T00:03:47;102679.78;;;5.99;84.25
84947;BME280;75241;51.692;5.196;2024-01-30T00:06:12;102678.06;;;5.95;84.26
84947;BME280;75241;51.692;5.196;2024-01-30T00:08:38;102675.47;;;5.92;84.59
84947;BME280;75241;51.692;5.196;2024-01-30T00:11:03;102674.59;;;5.88;84.49
84947;BME280;75241;51.692;5.196;2024-01-30T00:13:29;102667.69;;;5.84;84.40
84947;BME280;75241;51.692;5.196;2024-01-30T00:15:54;102672.91;;;5.81;84.52
84947;BME280;75241;51.692;5.196;2024-01-30T00:18:20;102669.41;;;5.79;84.52
84947;BME280;75241;51.692;5.196;2024-01-30T00:20:46;102658.13;;;5.74;84.67
84947;BME280;75241;51.692;5.196;2024-01-30T00:23:11;102661.63;;;5.71;84.60
84947;BME280;75241;51.692;5.196;2024-01-30T00:25:36;102659.88;;;5.67;84.64
84947;BME280;75241;51.692;5.196;2024-01-30T00:28:02;102656.41;;;5.65;84.74
84947;BME280;75241;51.692;5.196;2024-01-30T00:30:27;102658.16;;;5.61;84.83
84947;BME280;75241;51.692;5.196;2024-01-30T00:32:53;102656.44;;;5.59;84.86
84947;BME280;75241;51.692;5.196;2024-01-30T00:35:19;102657.31;;;5.56;84.91
84947;BME280;75241;51.692;5.196;2024-01-30T00:37:45;102650.38;;;5.54;85.05
84947;BME280;75241;51.692;5.196;2024-01-30T00:40:10;102654.72;;;5.53;85.05
84947;BME280;75241;51.692;5.196;2024-01-30T00:42:41;102649.50;;;5.50;85.12
84947;BME280;75241;51.692;5.196;2024-01-30T00:45:12;102646.91;;;5.50;85.15
84947;BME280;75241;51.692;5.196;2024-01-30T00:47:37;102646.03;;;5.48;84.92
84947;BME280;75241;51.692;5.196;2024-01-30T00:50:03;102639.09;;;5.47;85.21
84947;BME280;75241;51.692;5.196;2024-01-30T00:52:28;102644.31;;;5.45;85.37
84947;BME280;75241;51.692;5.196;2024-01-30T00:54:54;102642.59;;;5.44;85.35
84947;BME280;75241;51.692;5.196;2024-01-30T00:57:19;102646.91;;;5.45;85.37
84947;BME280;75241;51.692;5.196;2024-01-30T00:59:45;102649.53;;;5.45;85.37
84947;BME280;75241;51.692;5.196;2024-01-30T01:02:10;102648.66;;;5.46;85.59
84947;BME280;75241;51.692;5.196;2024-01-30T01:04:36;102648.66;;;5.49;85.56
84947;BME280;75241;51.692;5.196;2024-01-30T01:07:01;102646.91;;;5.51;85.53
84947;BME280;75241;51.692;5.196;2024-01-30T01:09:26;102649.50;;;5.51;85.43
84947;BME280;75241;51.692;5.196;2024-01-30T01:11:52;102645.19;;;5.52;85.28
84947;BME280;75241;51.692;5.196;2024-01-30T01:14:17;102639.09;;;5.51;85.31
84947;BME280;75241;51.692;5.196;2024-01-30T01:16:42;102633.00;;;5.53;85.24
84947;BME280;75241;51.692;5.196;2024-01-30T01:19:08;102636.50;;;5.53;85.34
84947;BME280;75241;51.692;5.196;2024-01-30T01:21:33;102630.41;;;5.53;85.43
84947;BME280;75241;51.692;5.196;2024-01-30T01:23:59;102631.28;;;5.53;85.44
84947;BME280;75241;51.692;5.196;2024-01-30T01:26:24;102639.09;;;5.53;85.39
84947;BME280;75241;51.692;5.196;2024-01-30T01:28:50;102630.41;;;5.53;85.39
84947;BME280;75241;51.692;5.196;2024-01-30T01:31:15;102628.69;;;5.53;85.53
84947;BME280;75241;51.692;5.196;2024-01-30T01:33:40;102627.81;;;5.54;85.51
84947;BME280;75241;51.692;5.196;2024-01-30T01:36:06;102626.97;;;5.55;85.40
84947;BME280;75241;51.692;5.196;2024-01-30T01:38:31;102620.88;;;5.55;85.35
84947;BME280;75241;51.692;5.196;2024-01-30T01:40:57;102625.22;;;5.56;85.34
84947;BME280;75241;51.692;5.196;2024-01-30T01:43:22;102626.94;;;5.58;85.30
84947;BME280;75241;51.692;5.196;2024-01-30T01:45:48;102616.53;;;5.60;85.38
84947;BME280;75241;51.692;5.196;2024-01-30T01:48:13;102619.13;;;5.63;85.35
84947;BME280;75241;51.692;5.196;2024-01-30T01:50:39;102617.38;;;5.65;85.33
84947;BME280;75241;51.692;5.196;2024-01-30T01:53:08;102622.59;;;5.66;85.31
84947;BME280;75241;51.692;5.196;2024-01-30T01:55:35;102615.63;;;5.67;85.37
84947;BME280;75241;51.692;5.196;2024-01-30T01:58:00;102602.66;;;5.64;85.28
84947;BME280;75241;51.692;5.196;2024-01-30T02:00:26;102602.63;;;5.62;85.35
84947;BME280;75241;51.692;5.196;2024-01-30T02:02:53;102607.00;;;5.62;85.23
84947;BME280;75241;51.692;5.196;2024-01-30T02:05:19;102600.91;;;5.60;85.42
84947;BME280;75241;51.692;5.196;2024-01-30T02:07:45;102604.38;;;5.57;85.29
84947;BME280;75241;51.692;5.196;2024-01-30T02:10:10;102603.50;;;5.57;85.11
84947;BME280;75241;51.692;5.196;2024-01-30T02:12:36;102609.59;;;5.56;85.16
84947;BME280;75241;51.692;5.196;2024-01-30T02:15:01;102608.72;;;5.54;84.98
84947;BME280;75241;51.692;5.196;2024-01-30T02:17:27;102608.72;;;5.54;85.28
84947;BME280;75241;51.692;5.196;2024-01-30T02:19:52;102613.06;;;5.51;85.31
84947;BME280;75241;51.692;5.196;2024-01-30T02:22:18;102613.94;;;5.49;85.28
84947;BME280;75241;51.692;5.196;2024-01-30T02:24:44;102613.97;;;5.47;85.25
84947;BME280;75241;51.692;5.196;2024-01-30T02:27:10;102610.50;;;5.45;85.29
84947;BME280;75241;51.692;5.196;2024-01-30T02:29:35;102614.81;;;5.43;85.23
84947;BME280;75241;51.692;5.196;2024-01-30T02:32:03;102613.94;;;5.41;85.41
84947;BME280;75241;51.692;5.196;2024-01-30T02:34:29;102603.53;;;5.41;85.51
84947;BME280;75241;51.692;5.196;2024-01-30T02:36:54;102607.00;;;5.40;85.42
84947;BME280;75241;51.692;5.196;2024-01-30T02:39:20;102595.75;;;5.40;85.55
84947;BME280;75241;51.692;5.196;2024-01-30T02:41:45;102595.75;;;5.41;85.60
84947;BME280;75241;51.692;5.196;2024-01-30T02:44:10;102581.00;;;5.42;85.42
84947;BME280;75241;51.692;5.196;2024-01-30T02:46:36;102587.03;;;5.44;85.71
84947;BME280;75241;51.692;5.196;2024-01-30T02:49:01;102587.91;;;5.46;85.53
84947;BME280;75241;51.692;5.196;2024-01-30T02:51:27;102578.38;;;5.48;85.74
84947;BME280;75241;51.692;5.196;2024-01-30T02:53:52;102577.50;;;5.50;85.64
84947;BME280;75241;51.692;5.196;2024-01-30T02:56:18;102580.09;;;5.54;85.63
84947;BME280;75241;51.692;5.196;2024-01-30T02:58:43;102578.34;;;5.57;85.61
84947;BME280;75241;51.692;5.196;2024-01-30T03:01:09;102574.88;;;5.61;85.64
84947;BME280;75241;51.692;5.196;2024-01-30T03:03:34;102573.13;;;5.66;85.79
84947;BME280;75241;51.692;5.196;2024-01-30T03:06:01;102570.50;;;5.71;85.70
84947;BME280;75241;51.692;5.196;2024-01-30T03:08:27;102573.09;;;5.77;85.70
84947;BME280;75241;51.692;5.196;2024-01-30T03:10:52;102563.53;;;5.81;85.64
84947;BME280;75241;51.692;5.196;2024-01-30T03:13:18;102569.56;;;5.86;85.54
84947;BME280;75241;51.692;5.196;2024-01-30T03:15:43;102569.56;;;5.91;85.51
84947;BME280;75241;51.692;5.196;2024-01-30T03:18:09;102568.69;;;5.93;85.33
84947;BME280;75241;51.692;5.196;2024-01-30T03:20:34;102564.31;;;5.97;85.33
84947;BME280;75241;51.692;5.196;2024-01-30T03:23:00;102573.91;;;6.01;85.25
84947;BME280;75241;51.692;5.196;2024-01-30T03:25:26;102577.38;;;6.03;85.25
84947;BME280;75241;51.692;5.196;2024-01-30T03:27:51;102578.19;;;6.08;85.08
84947;BME280;75241;51.692;5.196;2024-01-30T03:30:17;102568.63;;;6.14;85.14
84947;BME280;75241;51.692;5.196;2024-01-30T03:32:43;102578.16;;;6.18;85.18
84947;BME280;75241;51.692;5.196;2024-01-30T03:35:09;102574.66;;;6.22;85.00
84947;BME280;75241;51.692;5.196;2024-01-30T03:37:35;102581.59;;;6.26;84.85
84947;BME280;75241;51.692;5.196;2024-01-30T03:40:01;102578.09;;;6.30;84.81
84947;BME280;75241;51.692;5.196;2024-01-30T03:42:26;102568.50;;;6.35;84.72
84947;BME280;75241;51.692;5.196;2024-01-30T03:44:52;102581.53;;;6.40;84.61
84947;BME280;75241;51.692;5.196;2024-01-30T03:47:19;102581.47;;;6.46;84.52
84947;BME280;75241;51.692;5.196;2024-01-30T03:49:45;102583.16;;;6.52;84.50
84947;BME280;75241;51.692;5.196;2024-01-30T03:52:10;102575.31;;;6.56;84.41
84947;BME280;75241;51.692;5.196;2024-01-30T03:54:35;102582.25;;;6.61;84.33
84947;BME280;75241;51.692;5.196;2024-01-30T03:57:01;102575.25;;;6.64;84.08
84947;BME280;75241;51.692;5.196;2024-01-30T03:59:27;102573.50;;;6.68;83.94
84947;BME280;75241;51.692;5.196;2024-01-30T04:01:53;102564.75;;;6.72;83.89
84947;BME280;75241;51.692;5.196;2024-01-30T04:04:18;102566.50;;;6.73;83.84
84947;BME280;75241;51.692;5.196;2024-01-30T04:06:44;102571.72;;;6.75;83.63
84947;BME280;75241;51.692;5.196;2024-01-30T04:09:10;102574.31;;;6.76;83.79
84947;BME280;75241;51.692;5.196;2024-01-30T04:11:36;102563.84;;;6.78;83.69
84947;BME280;75241;51.692;5.196;2024-01-30T04:14:02;102569.06;;;6.78;83.60
84947;BME280;75241;51.692;5.196;2024-01-30T04:16:27;102556.03;;;6.78;83.60
84947;BME280;75241;51.692;5.196;2024-01-30T04:18:52;102558.66;;;6.79;83.59
84947;BME280;75241;51.692;5.196;2024-01-30T04:21:18;102554.28;;;6.80;83.51
84947;BME280;75241;51.692;5.196;2024-01-30T04:23:43;102542.13;;;6.80;83.49
84947;BME280;75241;51.692;5.196;2024-01-30T04:26:09;102547.34;;;6.80;83.54
84947;BME280;75241;51.692;5.196;2024-01-30T04:28:34;102554.28;;;6.81;83.38
84947;BME280;75241;51.692;5.196;2024-01-30T04:31:00;102562.97;;;6.82;83.40
84947;BME280;75241;51.692;5.196;2024-01-30T04:33:25;102565.56;;;6.85;83.36
84947;BME280;75241;51.692;5.196;2024-01-30T04:35:50;102564.69;;;6.86;83.42
84947;BME280;75241;51.692;5.196;2024-01-30T04:38:20;102566.41;;;6.87;83.46
84947;BME280;75241;51.692;5.196;2024-01-30T04:40:45;102557.72;;;6.88;83.36
84947;BME280;75241;51.692;5.196;2024-01-30T04:43:10;102562.91;;;6.89;83.17
84947;BME280;75241;51.692;5.196;2024-01-30T04:45:36;102556.81;;;6.91;83.25
84947;BME280;75241;51.692;5.196;2024-01-30T04:48:01;102553.31;;;6.92;83.15
84947;BME280;75241;51.692;5.196;2024-01-30T04:50:27;102550.72;;;6.92;83.19
84947;BME280;75241;51.692;5.196;2024-01-30T04:52:53;102548.94;;;6.95;83.25
84947;BME280;75241;51.692;5.196;2024-01-30T04:55:18;102556.75;;;6.95;83.28
84947;BME280;75241;51.692;5.196;2024-01-30T04:57:46;102548.09;;;6.95;83.07
84947;BME280;75241;51.692;5.196;2024-01-30T05:00:12;102538.50;;;6.95;83.13
84947;BME280;75241;51.692;5.196;2024-01-30T05:02:37;102540.22;;;6.96;83.13
84947;BME280;75241;51.692;5.196;2024-01-30T05:05:03;102541.09;;;6.97;83.14
84947;BME280;75241;51.692;5.196;2024-01-30T05:07:29;102539.34;;;6.97;83.01
84947;BME280;75241;51.692;5.196;2024-01-30T05:09:54;102538.47;;;6.97;83.05
84947;BME280;75241;51.692;5.196;2024-01-30T05:12:20;102530.66;;;6.97;83.12
84947;BME280;75241;51.692;5.196;2024-01-30T05:14:45;102530.66;;;6.97;82.95
84947;BME280;75241;51.692;5.196;2024-01-30T05:17:11;102538.47;;;6.97;83.20
84947;BME280;75241;51.692;5.196;2024-01-30T05:19:38;102541.94;;;6.99;83.28
84947;BME280;75241;51.692;5.196;2024-01-30T05:22:03;102528.03;;;7.00;83.11
84947;BME280;75241;51.692;5.196;2024-01-30T05:24:29;102535.81;;;7.03;83.17
84947;BME280;75241;51.692;5.196;2024-01-30T05:26:54;102547.97;;;7.06;83.14
84947;BME280;75241;51.692;5.196;2024-01-30T05:29:20;102538.38;;;7.09;82.96
84947;BME280;75241;51.692;5.196;2024-01-30T05:31:45;102534.00;;;7.11;82.98
84947;BME280;75241;51.692;5.196;2024-01-30T05:34:11;102538.34;;;7.14;82.98
84947;BME280;75241;51.692;5.196;2024-01-30T05:36:36;102537.47;;;7.15;82.87
84947;BME280;75241;51.692;5.196;2024-01-30T05:39:02;102536.59;;;7.16;82.84
84947;BME280;75241;51.692;5.196;2024-01-30T05:41:27;102529.56;;;7.18;83.02
84947;BME280;75241;51.692;5.196;2024-01-30T05:43:53;102537.41;;;7.19;82.72
84947;BME280;75241;51.692;5.196;2024-01-30T05:46:18;102547.81;;;7.21;82.90
84947;BME280;75241;51.692;5.196;2024-01-30T05:48:44;102532.16;;;7.23;83.01
84947;BME280;75241;51.692;5.196;2024-01-30T05:51:09;102533.88;;;7.25;82.93
84947;BME280;75241;51.692;5.196;2024-01-30T05:53:34;102543.44;;;7.25;82.92
84947;BME280;75241;51.692;5.196;2024-01-30T05:56:03;102542.53;;;7.26;82.90
84947;BME280;75241;51.692;5.196;2024-01-30T05:58:29;102548.66;;;7.26;82.91
84947;BME280;75241;51.692;5.196;2024-01-30T06:00:56;102546.88;;;7.27;82.96
84947;BME280;75241;51.692;5.196;2024-01-30T06:03:21;102552.13;;;7.28;82.79
84947;BME280;75241;51.692;5.196;2024-01-30T06:05:46;102557.28;;;7.31;82.88
84947;BME280;75241;51.692;5.196;2024-01-30T06:08:12;102560.75;;;7.33;82.86
84947;BME280;75241;51.692;5.196;2024-01-30T06:10:37;102558.09;;;7.37;82.62
84947;BME280;75241;51.692;5.196;2024-01-30T06:13:03;102562.44;;;7.38;82.66
84947;BME280;75241;51.692;5.196;2024-01-30T06:15:32;102552.84;;;7.40;82.58
84947;BME280;75241;51.692;5.196;2024-01-30T06:17:58;102549.38;;;7.41;82.56
84947;BME280;75241;51.692;5.196;2024-01-30T06:20:23;102558.06;;;7.43;82.32
84947;BME280;75241;51.692;5.196;2024-01-30T06:22:49;102556.28;;;7.43;82.70
84947;BME280;75241;51.692;5.196;2024-01-30T06:25:14;102552.81;;;7.44;82.55
84947;BME280;75241;51.692;5.196;2024-01-30T06:27:39;102564.06;;;7.48;82.60
84947;BME280;75241;51.692;5.196;2024-01-30T06:30:05;102550.13;;;7.49;82.66
84947;BME280;75241;51.692;5.196;2024-01-30T06:32:31;102557.97;;;7.49;82.51
84947;BME280;75241;51.692;5.196;2024-01-30T06:35:00;102554.47;;;7.50;82.67
84947;BME280;75241;51.692;5.196;2024-01-30T06:37:25;102554.47;;;7.50;82.47
84947;BME280;75241;51.692;5.196;2024-01-30T06:39:51;102561.44;;;7.51;82.45
84947;BME280;75241;51.692;5.196;2024-01-30T06:42:18;102575.38;;;7.52;82.62
84947;BME280;75241;51.692;5.196;2024-01-30T06:44:43;102571.84;;;7.53;82.65
84947;BME280;75241;51.692;5.196;2024-01-30T06:47:09;102571.84;;;7.54;82.58
84947;BME280;75241;51.692;5.196;2024-01-30T06:49:34;102580.50;;;7.58;82.61
84947;BME280;75241;51.692;5.196;2024-01-30T06:52:00;102586.59;;;7.60;82.67
84947;BME280;75241;51.692;5.196;2024-01-30T06:54:25;102586.56;;;7.63;82.52
84947;BME280;75241;51.692;5.196;2024-01-30T06:56:50;102587.41;;;7.63;82.50
84947;BME280;75241;51.692;5.196;2024-01-30T06:59:16;102584.78;;;7.65;82.37
84947;BME280;75241;51.692;5.196;2024-01-30T07:01:41;102587.38;;;7.67;82.57
84947;BME280;75241;51.692;5.196;2024-01-30T07:04:07;102589.97;;;7.68;82.52
84947;BME280;75241;51.692;5.196;2024-01-30T07:06:32;102588.19;;;7.70;82.44
84947;BME280;75241;51.692;5.196;2024-01-30T07:08:58;102589.09;;;7.71;82.39
84947;BME280;75241;51.692;5.196;2024-01-30T07:11:23;102596.88;;;7.72;82.62
84947;BME280;75241;51.692;5.196;2024-01-30T07:13:50;102596.81;;;7.77;82.53
84947;BME280;75241;51.692;5.196;2024-01-30T07:16:16;102603.75;;;7.81;82.54
84947;BME280;75241;51.692;5.196;2024-01-30T07:18:41;102608.00;;;7.88;82.46
84947;BME280;75241;51.692;5.196;2024-01-30T07:21:07;102600.16;;;7.93;82.54
84947;BME280;75241;51.692;5.196;2024-01-30T07:23:33;102606.97;;;8.02;82.39
84947;BME280;75241;51.692;5.196;2024-01-30T07:26:01;102603.41;;;8.09;82.26
84947;BME280;75241;51.692;5.196;2024-01-30T07:28:26;102605.94;;;8.15;82.02
84947;BME280;75241;51.692;5.196;2024-01-30T07:30:51;102612.84;;;8.21;81.96
84947;BME280;75241;51.692;5.196;2024-01-30T07:33:17;102615.38;;;8.27;81.66
84947;BME280;75241;51.692;5.196;2024-01-30T07:35:43;102624.88;;;8.34;81.68
84947;BME280;75241;51.692;5.196;2024-01-30T07:38:08;102623.03;;;8.41;81.56
84947;BME280;75241;51.692;5.196;2024-01-30T07:40:34;102624.66;;;8.50;81.24
84947;BME280;75241;51.692;5.196;2024-01-30T07:42:59;102624.63;;;8.54;81.03
84947;BME280;75241;51.692;5.196;2024-01-30T07:45:25;102614.97;;;8.58;81.00
84947;BME280;75241;51.692;5.196;2024-01-30T07:47:52;102629.75;;;8.62;80.88
84947;BME280;75241;51.692;5.196;2024-01-30T07:50:18;102627.06;;;8.67;80.82
84947;BME280;75241;51.692;5.196;2024-01-30T07:52:44;102627.00;;;8.71;80.74
84947;BME280;75241;51.692;5.196;2024-01-30T07:55:09;102633.00;;;8.78;80.64
84947;BME280;75241;51.692;5.196;2024-01-30T07:57:35;102626.84;;;8.82;80.36
84947;BME280;75241;51.692;5.196;2024-01-30T08:00:01;102624.97;;;8.89;80.32
84947;BME280;75241;51.692;5.196;2024-01-30T08:02:28;102637.09;;;8.93;80.17
84947;BME280;75241;51.692;5.196;2024-01-30T08:04:53;102629.22;;;8.98;80.10
84947;BME280;75241;51.692;5.196;2024-01-30T08:07:19;102632.59;;;9.03;79.98
84947;BME280;75241;51.692;5.196;2024-01-30T08:09:46;102626.44;;;9.07;79.90
84947;BME280;75241;51.692;5.196;2024-01-30T08:12:11;102632.47;;;9.11;79.72
84947;BME280;75241;51.692;5.196;2024-01-30T08:14:37;102635.00;;;9.15;79.74
84947;BME280;75241;51.692;5.196;2024-01-30T08:17:03;102635.84;;;9.17;79.61
84947;BME280;75241;51.692;5.196;2024-01-30T08:19:29;102636.59;;;9.24;79.77
84947;BME280;75241;51.692;5.196;2024-01-30T08:21:54;102640.03;;;9.29;79.43
84947;BME280;75241;51.692;5.196;2024-01-30T08:24:20;102645.13;;;9.36;79.59
84947;BME280;75241;51.692;5.196;2024-01-30T08:26:47;102650.28;;;9.40;79.22
84947;BME280;75241;51.692;5.196;2024-01-30T08:29:13;102646.72;;;9.46;79.28
84947;BME280;75241;51.692;5.196;2024-01-30T08:31:38;102636.13;;;9.52;79.10
84947;BME280;75241;51.692;5.196;2024-01-30T08:34:04;102642.09;;;9.59;79.06
84947;BME280;75241;51.692;5.196;2024-01-30T08:36:29;102638.53;;;9.63;78.75
84947;BME280;75241;51.692;5.196;2024-01-30T08:38:55;102635.78;;;9.69;78.83
84947;BME280;75241;51.692;5.196;2024-01-30T08:41:20;102636.59;;;9.74;78.67
84947;BME280;75241;51.692;5.196;2024-01-30T08:43:45;102629.56;;;9.76;78.58
84947;BME280;75241;51.692;5.196;2024-01-30T08:46:11;102634.66;;;9.83;78.49
84947;BME280;75241;51.692;5.196;2024-01-30T08:48:37;102641.56;;;9.87;78.43
84947;BME280;75241;51.692;5.196;2024-01-30T08:51:02;102643.28;;;9.89;78.31
84947;BME280;75241;51.692;5.196;2024-01-30T08:53:28;102640.59;;;9.92;77.97
84947;BME280;75241;51.692;5.196;2024-01-30T08:55:53;102638.81;;;9.94;78.06
84947;BME280;75241;51.692;5.196;2024-01-30T08:58:19;102638.69;;;10.01;77.93
84947;BME280;75241;51.692;5.196;2024-01-30T09:00:44;102641.22;;;10.04;77.69
84947;BME280;75241;51.692;5.196;2024-01-30T09:03:10;102646.41;;;10.07;77.50
84947;BME280;75241;51.692;5.196;2024-01-30T09:05:35;102637.56;;;10.13;77.56
84947;BME280;75241;51.692;5.196;2024-01-30T09:08:00;102651.44;;;10.18;77.23
84947;BME280;75241;51.692;5.196;2024-01-30T09:10:26;102658.28;;;10.25;77.21
84947;BME280;75241;51.692;5.196;2024-01-30T09:12:54;102663.47;;;10.28;77.02
84947;BME280;75241;51.692;5.196;2024-01-30T09:15:20;102658.13;;;10.33;77.02
84947;BME280;75241;51.692;5.196;2024-01-30T09:17:45;102659.78;;;10.38;76.76
84947;BME280;75241;51.692;5.196;2024-01-30T09:20:11;102672.88;;;10.40;76.53
84947;BME280;75241;51.692;5.196;2024-01-30T09:22:36;102678.91;;;10.44;76.58
84947;BME280;75241;51.692;5.196;2024-01-30T09:25:02;102670.09;;;10.48;76.49
84947;BME280;75241;51.692;5.196;2024-01-30T09:27:27;102679.63;;;10.50;76.40
84947;BME280;75241;51.692;5.196;2024-01-30T09:29:53;102676.06;;;10.53;76.35
84947;BME280;75241;51.692;5.196;2024-01-30T09:32:18;102679.59;;;10.52;76.24
84947;BME280;75241;51.692;5.196;2024-01-30T09:34:43;102677.06;;;10.49;76.08
84947;BME280;75241;51.692;5.196;2024-01-30T09:37:09;102675.19;;;10.54;76.13
84947;BME280;75241;51.692;5.196;2024-01-30T09:39:35;102679.56;;;10.53;76.01
84947;BME280;75241;51.692;5.196;2024-01-30T09:44:51;102681.25;;;10.58;76.12
84947;BME280;75241;51.692;5.196;2024-01-30T09:47:17;102682.09;;;10.58;76.15
84947;BME280;75241;51.692;5.196;2024-01-30T09:49:43;102680.34;;;10.59;76.24
84947;BME280;75241;51.692;5.196;2024-01-30T09:52:09;102686.50;;;10.56;76.04
84947;BME280;75241;51.692;5.196;2024-01-30T09:54:35;102689.13;;;10.58;76.16
84947;BME280;75241;51.692;5.196;2024-01-30T09:57:01;102684.75;;;10.57;76.24
84947;BME280;75241;51.692;5.196;2024-01-30T09:59:26;102693.47;;;10.57;76.42
84947;BME280;75241;51.692;5.196;2024-01-30T10:01:52;102689.91;;;10.60;76.40
84947;BME280;75241;51.692;5.196;2024-01-30T10:04:18;102692.53;;;10.61;76.34
84947;BME280;75241;51.692;5.196;2024-01-30T10:06:43;102698.63;;;10.63;76.34
84947;BME280;75241;51.692;5.196;2024-01-30T10:09:09;102698.66;;;10.60;76.43
84947;BME280;75241;51.692;5.196;2024-01-30T10:11:35;102701.28;;;10.60;76.24
84947;BME280;75241;51.692;5.196;2024-01-30T10:14:01;102699.41;;;10.67;76.23
84947;BME280;75241;51.692;5.196;2024-01-30T10:16:27;102703.66;;;10.73;76.13
84947;BME280;75241;51.692;5.196;2024-01-30T10:18:52;102701.91;;;10.71;75.81
84947;BME280;75241;51.692;5.196;2024-01-30T10:21:18;102705.25;;;10.78;75.95
84947;BME280;75241;51.692;5.196;2024-01-30T10:23:43;102715.72;;;10.80;75.79
84947;BME280;75241;51.692;5.196;2024-01-30T10:26:12;102713.00;;;10.84;75.60
84947;BME280;75241;51.692;5.196;2024-01-30T10:28:38;102704.13;;;10.90;75.48
84947;BME280;75241;51.692;5.196;2024-01-30T10:31:03;102700.50;;;10.94;74.98
84947;BME280;75241;51.692;5.196;2024-01-30T10:33:30;102698.72;;;10.96;74.74
84947;BME280;75241;51.692;5.196;2024-01-30T10:35:57;102705.63;;;11.00;74.51
84947;BME280;75241;51.692;5.196;2024-01-30T10:38:28;102707.25;;;11.06;74.60
84947;BME280;75241;51.692;5.196;2024-01-30T10:40:56;102707.97;;;11.13;74.41
84947;BME280;75241;51.692;5.196;2024-01-30T10:43:22;102703.59;;;11.13;74.13
84947;BME280;75241;51.692;5.196;2024-01-30T10:45:49;102711.28;;;11.21;73.98
84947;BME280;75241;51.692;5.196;2024-01-30T10:48:18;102714.81;;;11.20;73.55
84947;BME280;75241;51.692;5.196;2024-01-30T10:50:48;102713.09;;;11.17;73.49
84947;BME280;75241;51.692;5.196;2024-01-30T10:53:14;102719.16;;;11.21;73.45
84947;BME280;75241;51.692;5.196;2024-01-30T10:55:41;102716.44;;;11.24;73.24
84947;BME280;75241;51.692;5.196;2024-01-30T10:58:08;102719.06;;;11.24;72.67
84947;BME280;75241;51.692;5.196;2024-01-30T11:00:33;102718.16;;;11.27;72.67
84947;BME280;75241;51.692;5.196;2024-01-30T11:02:59;102711.06;;;11.29;72.40
84947;BME280;75241;51.692;5.196;2024-01-30T11:05:25;102711.06;;;11.30;72.16
84947;BME280;75241;51.692;5.196;2024-01-30T11:07:52;102713.50;;;11.38;71.93
84947;BME280;75241;51.692;5.196;2024-01-30T11:10:18;102712.50;;;11.42;71.65
84947;BME280;75241;51.692;5.196;2024-01-30T11:12:46;102720.34;;;11.44;71.77
84947;BME280;75241;51.692;5.196;2024-01-30T11:15:19;102717.03;;;11.36;70.53
84947;BME280;75241;51.692;5.196;2024-01-30T11:20:20;102717.84;;;11.39;69.40
84947;BME280;75241;51.692;5.196;2024-01-30T11:22:47;102709.91;;;11.41;67.86
84947;BME280;75241;51.692;5.196;2024-01-30T11:25:14;102711.59;;;11.43;68.05
84947;BME280;75241;51.692;5.196;2024-01-30T11:27:40;102710.88;;;11.38;66.86
84947;BME280;75241;51.692;5.196;2024-01-30T11:30:06;102719.56;;;11.40;67.67
84947;BME280;75241;51.692;5.196;2024-01-30T11:32:33;102719.66;;;11.36;67.29
84947;BME280;75241;51.692;5.196;2024-01-30T11:34:58;102713.44;;;11.40;66.94
84947;BME280;75241;51.692;5.196;2024-01-30T11:37:25;102721.38;;;11.38;66.05
84947;BME280;75241;51.692;5.196;2024-01-30T11:39:53;102731.75;;;11.43;65.45
84947;BME280;75241;51.692;5.196;2024-01-30T11:42:19;102732.59;;;11.45;65.13
84947;BME280;75241;51.692;5.196;2024-01-30T11:44:48;102750.19;;;11.41;64.17
84947;BME280;75241;51.692;5.196;2024-01-30T11:47:14;102745.88;;;11.39;64.19
84947;BME280;75241;51.692;5.196;2024-01-30T11:49:40;102745.00;;;11.38;64.39
84947;BME280;75241;51.692;5.196;2024-01-30T11:52:05;102745.00;;;11.38;64.29
84947;BME280;75241;51.692;5.196;2024-01-30T11:54:31;102731.09;;;11.35;62.99
84947;BME280;75241;51.692;5.196;2024-01-30T11:56:56;102739.03;;;11.31;62.83
84947;BME280;75241;51.692;5.196;2024-01-30T11:59:22;102733.91;;;11.27;62.50
84947;BME280;75241;51.692;5.196;2024-01-30T12:01:47;102751.53;;;11.22;62.13
84947;BME280;75241;51.692;5.196;2024-01-30T12:04:13;102743.66;;;11.22;62.85
84947;BME280;75241;51.692;5.196;2024-01-30T12:06:39;102742.00;;;11.17;62.74
84947;BME280;75241;51.692;5.196;2024-01-30T12:09:04;102744.56;;;11.21;63.46
84947;BME280;75241;51.692;5.196;2024-01-30T12:11:31;102750.88;;;11.13;63.83
84947;BME280;75241;51.692;5.196;2024-01-30T12:13:56;102745.81;;;11.04;64.00
84947;BME280;75241;51.692;5.196;2024-01-30T12:16:22;102748.50;;;11.01;64.84
84947;BME280;75241;51.692;5.196;2024-01-30T12:18:48;102753.78;;;10.99;65.18
84947;BME280;75241;51.692;5.196;2024-01-30T12:21:16;102752.97;;;10.97;64.72
84947;BME280;75241;51.692;5.196;2024-01-30T12:23:43;102749.50;;;10.95;64.91
84947;BME280;75241;51.692;5.196;2024-01-30T12:26:09;102757.38;;;10.95;65.20
84947;BME280;75241;51.692;5.196;2024-01-30T12:28:35;102774.19;;;10.86;64.10
84947;BME280;75241;51.692;5.196;2024-01-30T12:31:04;102778.53;;;10.88;64.10
84947;BME280;75241;51.692;5.196;2024-01-30T12:33:30;102778.59;;;10.86;63.66
84947;BME280;75241;51.692;5.196;2024-01-30T12:35:56;102775.13;;;10.84;62.92
84947;BME280;75241;51.692;5.196;2024-01-30T12:38:22;102782.94;;;10.87;62.79
84947;BME280;75241;51.692;5.196;2024-01-30T12:40:49;102775.13;;;10.84;62.39
84947;BME280;75241;51.692;5.196;2024-01-30T12:43:15;102790.13;;;10.79;62.54
84947;BME280;75241;51.692;5.196;2024-01-30T12:45:41;102802.56;;;10.69;62.30
84947;BME280;75241;51.692;5.196;2024-01-30T12:48:06;102787.88;;;10.60;61.61
84947;BME280;75241;51.692;5.196;2024-01-30T12:50:32;102788.78;;;10.59;61.75
84947;BME280;75241;51.692;5.196;2024-01-30T12:52:57;102798.53;;;10.52;61.78
84947;BME280;75241;51.692;5.196;2024-01-30T12:55:23;102790.81;;;10.45;62.17